createdAt,value
2022-08-02T00:10:17.884Z,9972.2207
2022-08-02T00:25:20.137Z,7941.05176
2022-08-02T00:40:22.354Z,2304.25171
2022-08-02T00:55:31.215Z,4959.74365
2022-08-02T01:10:33.844Z,6098.21533
2022-08-02T01:25:36.017Z,8875.18262
2022-08-02T01:40:38.327Z,2273.17676
2022-08-02T01:55:57.916Z,2281.65161
2022-08-02T02:12:11.630Z,1922.87769
2022-08-02T02:27:16.001Z,1346.57947
2022-08-02T02:42:18.420Z,1106.45508
2022-08-02T02:57:20.780Z,592.30658
2022-08-02T03:12:26.885Z,232.59099
2022-08-02T03:27:32.913Z,73.44978
2022-08-02T03:42:35.191Z,16.00829
2022-08-02T03:57:37.451Z,1.88333
2022-08-02T04:12:39.711Z,0
2022-08-02T04:27:50.364Z,0
2022-08-02T04:43:18.283Z,0
2022-08-02T04:58:39.302Z,0
2022-08-02T05:13:59.313Z,0
2022-08-02T05:29:01.927Z,0
2022-08-02T05:44:04.145Z,0
2022-08-02T05:59:06.553Z,0
2022-08-02T06:14:08.752Z,0
2022-08-02T06:29:10.937Z,0
2022-08-02T06:44:46.012Z,0
2022-08-02T06:59:53.249Z,0
2022-08-02T07:14:55.463Z,0
2022-08-02T07:29:57.798Z,0
2022-08-02T07:45:00.073Z,0
2022-08-02T08:00:02.462Z,0
2022-08-02T08:15:04.831Z,0
2022-08-02T08:30:07.037Z,0
2022-08-02T08:45:09.268Z,0
2022-08-02T09:00:11.527Z,0
2022-08-02T09:15:16.008Z,0
2022-08-02T09:30:18.572Z,0
2022-08-02T09:45:20.801Z,0
2022-08-02T10:00:43.378Z,0
2022-08-02T10:15:54.294Z,0
2022-08-02T10:30:56.501Z,0
2022-08-02T10:45:58.810Z,0
2022-08-02T11:01:01.213Z,0
2022-08-02T11:16:07.752Z,0
2022-08-02T11:31:13.544Z,0
2022-08-02T11:46:15.858Z,0
2022-08-02T12:01:18.117Z,3.76666
2022-08-02T12:16:20.335Z,28.24992
2022-08-02T12:31:22.716Z,105.46636
2022-08-02T12:46:24.911Z,236.35765
2022-08-02T13:01:27.170Z,400.20715
2022-08-02T13:16:31.296Z,1067.84692
2022-08-02T13:31:36.620Z,1525.49561
2022-08-02T13:46:39.292Z,2195.01855
2022-08-02T14:01:48.045Z,2728.00049
2022-08-02T14:16:50.335Z,3288.29053
2022-08-02T14:31:52.583Z,3709.21411
2022-08-02T14:46:56.182Z,4532.22852
2022-08-02T15:01:58.524Z,4706.43604
2022-08-02T15:17:00.878Z,3909.78857
2022-08-02T15:32:03.149Z,4974.81055
2022-08-02T15:47:05.335Z,6198.03174
2022-08-02T16:02:07.684Z,7139.6958
2022-08-02T16:17:09.954Z,7057.771
2022-08-02T16:32:12.515Z,7099.2041
2022-08-02T16:47:15.198Z,7567.21143
2022-08-02T17:02:18.343Z,7534.25293
2022-08-02T17:17:21.747Z,7330.85352
2022-08-02T17:32:24.143Z,6984.32129
2022-08-02T17:47:31.657Z,7051.1792
2022-08-02T18:02:55.139Z,6987.14648
2022-08-02T18:17:58.001Z,7423.13672
2022-08-02T18:33:55.896Z,7513.53662
2022-08-02T18:49:13.300Z,7748.01074
2022-08-02T19:04:27.592Z,8142.56787
2022-08-02T19:19:30.853Z,8383.63379
2022-08-02T19:34:35.694Z,8577.61621
2022-08-02T19:49:40.431Z,8754.64941
2022-08-02T20:04:43.219Z,8774.4248
2022-08-02T20:19:52.548Z,8896.84082
2022-08-02T20:34:54.750Z,9038.08984
2022-08-02T20:49:57.101Z,8980.64844
2022-08-02T21:05:00.117Z,9136.96484
2022-08-02T21:20:10.082Z,3084.89111
2022-08-02T21:35:13.271Z,8458.9668
2022-08-02T21:50:16.308Z,8638.8252
2022-08-02T22:05:18.962Z,8661.4248
2022-08-02T22:20:21.526Z,8571.02539
2022-08-02T22:35:23.871Z,8761.24121
2022-08-02T22:50:27.098Z,8387.40039
2022-08-02T23:05:29.380Z,8826.21582
2022-08-02T23:20:31.614Z,9339.42285
2022-08-02T23:35:33.885Z,9987.28711
2022-08-02T23:50:36.084Z,10640.80273
